Time,TemperatureF,DewpointF,PressureIn,WindDirection,WindDirectionDegrees,WindSpeedMPH,WindSpeedGustMPH,Humidity,HourlyPrecipIn,Conditions,Clouds,dailyrainin,SoftwareType,DateUTC
2013-02-05 00:01:00,33.0,30.0,-100.00,NNW,345,1.0,1.0,88,-99.99,,,-99.99,,2013-02-05 08:01:00,
2013-02-05 02:01:00,33.0,30.0,-100.00,SE,145,3.0,5.0,88,-99.99,,,-99.99,,2013-02-05 10:01:00,
2013-02-05 02:10:00,33.0,31.0,-100.00,SE,145,5.0,7.0,92,-99.99,,,-99.99,,2013-02-05 10:10:00,
2013-02-05 02:11:00,33.0,30.0,-100.00,SE,145,3.0,5.0,88,-99.99,,,-99.99,,2013-02-05 10:11:00,
2013-02-05 03:01:00,33.0,31.0,-100.00,SE,145,5.0,7.0,92,-99.99,,,-99.99,,2013-02-05 11:01:00,
2013-02-05 05:01:00,33.0,31.0,-100.00,SW,220,1.0,3.0,92,-99.99,,,-99.99,,2013-02-05 13:01:00,
2013-02-05 05:10:00,33.0,31.0,-100.00,East,90,1.0,3.0,92,-99.99,,,-99.99,,2013-02-05 13:10:00,
2013-02-05 06:01:00,33.0,31.0,-100.00,East,90,1.0,3.0,92,-99.99,,,-99.99,,2013-02-05 14:01:00,
2013-02-05 07:01:00,33.0,31.0,-100.00,NE,40,0.0,1.0,92,-99.99,,,-99.99,,2013-02-05 15:01:00,
2013-02-05 07:10:00,33.0,31.0,-100.00,WSW,255,0.0,1.0,92,-99.99,,,-99.99,,2013-02-05 15:10:00,
2013-02-05 07:11:00,33.0,31.0,-100.00,NE,40,0.0,1.0,92,-99.99,,,-99.99,,2013-02-05 15:11:00,
2013-02-05 08:01:00,33.0,31.0,-100.00,WSW,255,0.0,1.0,92,-99.99,,,-99.99,,2013-02-05 16:01:00,
2013-02-05 09:01:00,33.0,31.0,-100.00,South,185,1.0,2.0,92,-99.99,,,-99.99,,2013-02-05 17:01:00,
2013-02-05 09:11:00,33.0,31.0,-100.00,South,185,1.0,2.0,92,-99.99,,,-99.99,,2013-02-05 17:11:00,
2013-02-05 09:20:00,34.0,32.0,-100.00,NW,315,2.0,3.0,92,-99.99,,,-99.99,,2013-02-05 17:20:00,
2013-02-05 10:01:00,34.0,32.0,-100.00,NW,315,2.0,3.0,92,-99.99,,,-99.99,,2013-02-05 18:01:00,
2013-02-05 10:10:00,37.0,35.0,-100.00,WNW,285,2.0,5.0,92,-99.99,,,-99.99,,2013-02-05 18:10:00,
2013-02-05 10:11:00,34.0,32.0,-100.00,NW,315,2.0,3.0,92,-99.99,,,-99.99,,2013-02-05 18:11:00,
2013-02-05 11:02:00,37.0,35.0,-100.00,WNW,285,2.0,5.0,92,-99.99,,,-99.99,,2013-02-05 19:02:00,
2013-02-05 12:01:00,38.0,31.0,-100.00,SE,145,7.0,12.0,75,-99.99,,,-99.99,,2013-02-05 20:01:00,
2013-02-05 12:11:00,38.0,31.0,-100.00,SE,145,7.0,12.0,75,-99.99,,,-99.99,,2013-02-05 20:11:00,
2013-02-05 13:01:00,40.0,32.0,-100.00,SE,145,3.0,7.0,72,-99.99,,,-99.99,,2013-02-05 21:01:00,
2013-02-05 13:10:00,40.0,31.0,-100.00,SSE,150,7.0,10.0,69,-99.99,,,-99.99,,2013-02-05 21:10:00,
2013-02-05 14:01:00,40.0,31.0,-100.00,SSE,150,7.0,10.0,69,-99.99,,,-99.99,,2013-02-05 22:01:00,
2013-02-05 15:02:00,42.0,32.0,-100.00,SE,130,5.0,9.0,67,-99.99,,,-99.99,,2013-02-05 23:02:00,
2013-02-05 15:10:00,40.0,32.0,-100.00,SE,145,8.0,13.0,72,-99.99,,,-99.99,,2013-02-05 23:10:00,
2013-02-05 15:11:00,42.0,32.0,-100.00,SE,130,5.0,9.0,67,-99.99,,,-99.99,,2013-02-05 23:11:00,
2013-02-05 16:02:00,40.0,32.0,-100.00,SE,145,8.0,13.0,72,-99.99,,,-99.99,,2013-02-06 00:02:00,
2013-02-05 17:02:00,39.0,32.0,-100.00,SSE,150,5.0,9.0,75,-99.99,,,-99.99,,2013-02-06 01:02:00,
2013-02-05 17:11:00,39.0,32.0,-100.00,SSE,150,5.0,9.0,75,-99.99,,,-99.99,,2013-02-06 01:11:00,
2013-02-05 18:01:00,38.0,31.0,-100.00,SE,145,3.0,5.0,75,-99.99,,,-99.99,,2013-02-06 02:01:00,
2013-02-05 18:10:00,35.0,30.0,-100.00,WNW,290,1.0,2.0,81,-99.99,,,-99.99,,2013-02-06 02:10:00,
2013-02-05 19:02:00,35.0,30.0,-100.00,WNW,290,1.0,2.0,81,-99.99,,,-99.99,,2013-02-06 03:02:00,
2013-02-05 20:02:00,34.0,30.0,-100.00,South,175,1.0,2.0,85,-99.99,,,-99.99,,2013-02-06 04:02:00,
2013-02-05 20:10:00,34.0,30.0,-100.00,NW,310,0.0,1.0,85,-99.99,,,-99.99,,2013-02-06 04:10:00,
2013-02-05 20:11:00,34.0,30.0,-100.00,South,175,1.0,2.0,85,-99.99,,,-99.99,,2013-02-06 04:11:00,
2013-02-05 21:01:00,34.0,30.0,-100.00,NW,310,0.0,1.0,85,-99.99,,,-99.99,,2013-02-06 05:01:00,
2013-02-05 22:01:00,33.0,30.0,-100.00,SW,230,3.0,5.0,88,-99.99,,,-99.99,,2013-02-06 06:01:00,
2013-02-05 22:11:00,33.0,30.0,-100.00,SW,230,3.0,5.0,88,-99.99,,,-99.99,,2013-02-06 06:11:00,
2013-02-05 22:20:00,32.0,29.0,-100.00,South,190,2.0,3.0,88,-99.99,,,-99.99,,2013-02-06 06:20:00,
2013-02-05 23:01:00,32.0,29.0,-100.00,South,190,2.0,3.0,88,-99.99,,,-99.99,,2013-02-06 07:01:00,
2013-02-05 23:10:00,33.0,30.0,-100.00,North,355,0.0,2.0,88,-99.99,,,-99.99,,2013-02-06 07:10:00,
2013-02-05 23:11:00,32.0,29.0,-100.00,South,190,2.0,3.0,88,-99.99,,,-99.99,,2013-02-06 07:11:00,